createdAt,value
2023-02-11T00:00:27.955Z,19.15
2023-02-11T00:01:27.959Z,19.17
2023-02-11T00:02:27.994Z,19.17
2023-02-11T00:03:27.978Z,19.17
2023-02-11T00:04:27.907Z,19.15
2023-02-11T00:05:27.902Z,19.15
2023-02-11T00:06:27.934Z,19.15
2023-02-11T00:07:28.665Z,19.15
2023-02-11T00:08:27.866Z,19.15
2023-02-11T00:09:29.798Z,19.15
2023-02-11T00:10:27.846Z,19.15
2023-02-11T00:11:27.851Z,19.15
2023-02-11T00:12:27.823Z,19.14
2023-02-11T00:13:27.812Z,19.15
2023-02-11T00:14:27.806Z,19.14
2023-02-11T00:15:27.786Z,19.14
2023-02-11T00:16:27.810Z,19.14
2023-02-11T00:17:27.777Z,19.14
2023-02-11T00:18:27.762Z,19.15
2023-02-11T00:19:27.744Z,19.14
2023-02-11T00:20:27.735Z,19.15
2023-02-11T00:21:27.721Z,19.14
2023-02-11T00:22:27.726Z,19.14
2023-02-11T00:23:27.700Z,19.15
2023-02-11T00:24:27.689Z,19.13
2023-02-11T00:25:27.682Z,19.13
2023-02-11T00:26:27.693Z,19.15
2023-02-11T00:27:27.667Z,19.14
2023-02-11T00:28:27.706Z,19.14
2023-02-11T00:29:27.632Z,19.14
2023-02-11T00:30:27.662Z,19.14
2023-02-11T00:31:27.689Z,19.14
2023-02-11T00:32:27.610Z,19.13
2023-02-11T00:33:27.597Z,19.14
2023-02-11T00:34:27.633Z,19.14
2023-02-11T00:35:27.568Z,19.14
2023-02-11T00:36:27.571Z,19.13
2023-02-11T00:37:27.543Z,19.14
2023-02-11T00:38:27.536Z,19.14
2023-02-11T00:39:27.528Z,19.13
2023-02-11T00:40:27.520Z,19.14
2023-02-11T00:41:27.509Z,19.14
2023-02-11T00:42:27.497Z,19.14
2023-02-11T00:43:27.489Z,19.14
2023-02-11T00:44:27.480Z,19.13
2023-02-11T00:45:27.458Z,19.14
2023-02-11T00:46:27.504Z,19.14
2023-02-11T00:47:27.436Z,19.14
2023-02-11T00:48:27.440Z,19.14
2023-02-11T00:49:27.417Z,19.14
2023-02-11T00:50:27.405Z,19.13
2023-02-11T00:51:27.403Z,19.11
2023-02-11T00:52:27.384Z,19.13
2023-02-11T00:53:27.383Z,19.13
2023-02-11T00:54:29.890Z,19.13
2023-02-11T00:55:27.345Z,19.13
2023-02-11T00:56:27.366Z,19.13
2023-02-11T00:57:27.323Z,19.11
2023-02-11T00:58:27.333Z,19.13
2023-02-11T00:59:27.312Z,19.13
2023-02-11T01:00:27.310Z,19.13
2023-02-11T01:01:27.493Z,19.13
2023-02-11T01:02:27.275Z,19.13
2023-02-11T01:03:27.291Z,19.13
2023-02-11T01:04:27.264Z,19.13
2023-02-11T01:05:27.310Z,19.13
2023-02-11T01:06:27.304Z,19.13
2023-02-11T01:07:28.187Z,19.13
2023-02-11T01:08:27.220Z,19.11
2023-02-11T01:09:27.212Z,19.13
2023-02-11T01:10:27.194Z,19.13
2023-02-11T01:11:27.358Z,19.11
2023-02-11T01:12:27.187Z,19.13
2023-02-11T01:13:27.159Z,19.13
2023-02-11T01:14:27.153Z,19.11
2023-02-11T01:15:27.139Z,19.13
2023-02-11T01:16:27.165Z,19.11
2023-02-11T01:17:27.118Z,19.11
2023-02-11T01:18:27.120Z,19.11
2023-02-11T01:19:27.113Z,19.11
2023-02-11T01:20:27.087Z,19.11
2023-02-11T01:21:27.080Z,19.14
2023-02-11T01:22:27.068Z,19.11
2023-02-11T01:23:27.050Z,19.11
2023-02-11T01:24:27.045Z,19.11
2023-02-11T01:25:27.035Z,19.13
2023-02-11T01:26:27.036Z,19.13
2023-02-11T01:27:27.008Z,19.10
2023-02-11T01:28:27.072Z,19.11
2023-02-11T01:29:26.988Z,19.11
2023-02-11T01:30:26.989Z,19.08
2023-02-11T01:31:27.079Z,19.11
2023-02-11T01:32:26.958Z,19.10
2023-02-11T01:33:26.947Z,19.11
2023-02-11T01:34:26.939Z,19.10
2023-02-11T01:35:26.938Z,19.10
2023-02-11T01:36:26.922Z,19.10
2023-02-11T01:37:26.900Z,19.11
2023-02-11T01:38:26.901Z,19.11
2023-02-11T01:39:26.937Z,19.10
2023-02-11T01:40:26.882Z,19.11
2023-02-11T01:41:26.862Z,19.11
2023-02-11T01:42:26.848Z,19.10
2023-02-11T01:43:26.842Z,19.10
2023-02-11T01:44:26.832Z,19.10
2023-02-11T01:45:26.816Z,19.10
2023-02-11T01:46:26.848Z,19.08
2023-02-11T01:47:26.797Z,19.10
2023-02-11T01:48:26.783Z,19.10
2023-02-11T01:49:26.822Z,19.11
2023-02-11T01:50:26.761Z,19.10
2023-02-11T01:51:26.781Z,19.10
2023-02-11T01:52:26.748Z,19.08
2023-02-11T01:53:26.726Z,19.10
2023-02-11T01:54:26.722Z,19.10
2023-02-11T01:55:26.710Z,19.10
2023-02-11T01:56:26.710Z,19.10
2023-02-11T01:57:26.705Z,19.08
2023-02-11T01:58:26.691Z,19.06
2023-02-11T01:59:26.663Z,19.10
2023-02-11T02:00:26.664Z,19.10
2023-02-11T02:01:26.671Z,19.08
2023-02-11T02:02:26.649Z,19.08
2023-02-11T02:03:26.665Z,19.08
2023-02-11T02:04:26.617Z,19.10
2023-02-11T02:05:26.602Z,19.08
2023-02-11T02:06:26.599Z,19.08
2023-02-11T02:07:26.636Z,19.10
2023-02-11T02:08:26.608Z,19.08
2023-02-11T02:09:26.557Z,19.08
2023-02-11T02:10:26.598Z,19.06
2023-02-11T02:11:26.545Z,19.10
2023-02-11T02:12:26.525Z,19.06
2023-02-11T02:13:26.519Z,19.10
2023-02-11T02:14:26.514Z,19.08
2023-02-11T02:15:26.488Z,19.08
2023-02-11T02:16:26.531Z,19.08
2023-02-11T02:17:26.480Z,19.10
2023-02-11T02:18:26.485Z,19.10
2023-02-11T02:19:26.448Z,19.08
2023-02-11T02:20:26.441Z,19.10
2023-02-11T02:21:26.426Z,19.10
2023-02-11T02:22:26.420Z,19.08
2023-02-11T02:23:26.412Z,19.06
2023-02-11T02:24:26.407Z,19.08
2023-02-11T02:25:26.381Z,19.08
2023-02-11T02:26:26.394Z,19.08
2023-02-11T02:27:26.360Z,19.08
2023-02-11T02:28:26.424Z,19.08
2023-02-11T02:29:26.335Z,19.06
2023-02-11T02:30:26.368Z,19.06
2023-02-11T02:31:26.381Z,19.06
2023-02-11T02:32:26.321Z,19.05
2023-02-11T02:33:26.306Z,19.08
2023-02-11T02:34:26.317Z,19.06
2023-02-11T02:35:26.274Z,19.06
2023-02-11T02:36:26.289Z,19.06
2023-02-11T02:37:26.246Z,19.06
2023-02-11T02:38:26.244Z,19.06
2023-02-11T02:39:26.240Z,19.08
2023-02-11T02:40:26.219Z,19.06
2023-02-11T02:41:26.219Z,19.06
2023-02-11T02:42:26.204Z,19.08
2023-02-11T02:43:26.184Z,19.06
2023-02-11T02:44:26.176Z,19.05
2023-02-11T02:45:26.163Z,19.06
2023-02-11T02:46:26.277Z,19.08
2023-02-11T02:47:26.149Z,19.08
2023-02-11T02:48:26.139Z,19.06
2023-02-11T02:49:26.121Z,19.06
2023-02-11T02:50:26.121Z,19.06
2023-02-11T02:51:26.098Z,19.08
2023-02-11T02:52:26.107Z,19.06
2023-02-11T02:53:26.087Z,19.06
2023-02-11T02:54:26.078Z,19.06
2023-02-11T02:55:26.062Z,19.08
2023-02-11T02:56:26.055Z,19.06
2023-02-11T02:57:26.050Z,19.06
2023-02-11T02:58:26.033Z,19.06
2023-02-11T02:59:26.018Z,19.05
2023-02-11T03:00:26.091Z,19.05
2023-02-11T03:01:25.995Z,19.08
2023-02-11T03:02:26.022Z,19.06
2023-02-11T03:03:25.992Z,19.06
2023-02-11T03:04:25.969Z,19.05
2023-02-11T03:05:25.956Z,19.06
2023-02-11T03:06:25.944Z,19.06
2023-02-11T03:07:26.722Z,19.06
2023-02-11T03:08:25.922Z,19.05
2023-02-11T03:09:25.916Z,19.05
2023-02-11T03:10:25.903Z,19.05
2023-02-11T03:11:25.921Z,19.05
2023-02-11T03:12:25.882Z,19.06
2023-02-11T03:13:25.880Z,19.06
2023-02-11T03:14:25.857Z,19.06
2023-02-11T03:15:25.851Z,19.02
2023-02-11T03:16:25.915Z,19.06
2023-02-11T03:17:25.840Z,19.06
2023-02-11T03:19:18.441Z,19.08
2023-02-11T03:20:19.439Z,19.05
2023-02-11T03:21:19.417Z,19.06
2023-02-11T03:22:19.400Z,19.06
2023-02-11T03:23:19.402Z,19.08
2023-02-11T03:24:19.381Z,19.06
2023-02-11T03:25:19.380Z,19.02
2023-02-11T03:26:19.372Z,19.06
2023-02-11T03:27:19.358Z,19.06
2023-02-11T03:28:19.445Z,19.05
2023-02-11T03:29:19.343Z,19.02
2023-02-11T03:30:19.317Z,19.06
2023-02-11T03:31:19.434Z,19.05
2023-02-11T03:32:19.374Z,19.02
2023-02-11T03:33:19.302Z,19.06
2023-02-11T03:34:19.275Z,19.02
2023-02-11T03:35:19.275Z,19.05
2023-02-11T03:36:19.254Z,19.05
2023-02-11T03:37:19.255Z,19.02
2023-02-11T03:38:19.247Z,19.05
2023-02-11T03:39:19.235Z,19.06
2023-02-11T03:40:19.225Z,19.02
2023-02-11T03:41:19.212Z,19.05
2023-02-11T03:42:19.191Z,19.05
2023-02-11T03:43:19.194Z,19.05
2023-02-11T03:44:19.178Z,19.06
2023-02-11T03:45:19.164Z,19.06
2023-02-11T03:46:19.249Z,19.05
2023-02-11T03:47:19.147Z,19.05
2023-02-11T03:48:19.129Z,19.05
2023-02-11T03:49:19.130Z,19.05
2023-02-11T03:50:19.130Z,19.05
2023-02-11T03:51:19.097Z,19.06
2023-02-11T03:52:19.088Z,19.05
2023-02-11T03:53:19.080Z,19.05
2023-02-11T03:54:19.060Z,19.02
2023-02-11T03:55:19.063Z,19.05
2023-02-11T03:56:19.053Z,19.05
2023-02-11T03:57:19.045Z,19.02
2023-02-11T03:58:19.022Z,19.02
2023-02-11T03:59:19.010Z,19.05
2023-02-11T04:00:19.001Z,19.02
2023-02-11T04:01:19.060Z,19.05
2023-02-11T04:02:18.991Z,19.05
2023-02-11T04:03:19.011Z,19.05
2023-02-11T04:04:18.968Z,19.05
2023-02-11T04:05:18.959Z,19.02
2023-02-11T04:06:18.933Z,19.05
2023-02-11T04:07:18.925Z,19.02
2023-02-11T04:08:18.954Z,19.02
2023-02-11T04:09:18.919Z,19.02
2023-02-11T04:10:18.892Z,19.02
2023-02-11T04:11:18.887Z,19.02
2023-02-11T04:12:18.870Z,19.02
2023-02-11T04:13:18.864Z,19.02
2023-02-11T04:14:18.865Z,19.02
2023-02-11T04:15:18.853Z,19.05
2023-02-11T04:16:18.865Z,19.02
2023-02-11T04:17:18.848Z,19.06
2023-02-11T04:18:18.809Z,19.01
2023-02-11T04:19:18.812Z,19.02
2023-02-11T04:20:18.792Z,19.05
2023-02-11T04:21:18.780Z,19.01
2023-02-11T04:22:18.770Z,19.02
2023-02-11T04:23:18.777Z,19.02
2023-02-11T04:24:18.745Z,19.01
2023-02-11T04:25:18.742Z,19.01
2023-02-11T04:26:18.728Z,19.01
2023-02-11T04:27:18.720Z,19.01
2023-02-11T04:28:18.748Z,19.02
2023-02-11T04:29:18.693Z,19.01
2023-02-11T04:30:18.690Z,19.02
2023-02-11T04:31:18.784Z,19.02
2023-02-11T04:32:18.666Z,19.02
2023-02-11T04:33:18.727Z,19.01
2023-02-11T04:34:18.648Z,19.02
2023-02-11T04:35:18.635Z,19.01
2023-02-11T04:36:18.627Z,19.02
2023-02-11T04:37:18.611Z,19.02
2023-02-11T04:38:18.612Z,19.02
2023-02-11T04:39:18.593Z,19.02
2023-02-11T04:40:18.584Z,19.02
2023-02-11T04:41:18.569Z,19.02
2023-02-11T04:42:18.575Z,19.02
2023-02-11T04:43:18.565Z,19.02
2023-02-11T04:44:18.538Z,19.02
2023-02-11T04:45:18.531Z,19.01
2023-02-11T04:46:18.544Z,19.02
2023-02-11T04:47:18.506Z,19.05
2023-02-11T04:48:18.511Z,19.05
2023-02-11T04:49:18.485Z,19.05
2023-02-11T04:50:18.489Z,19.02
2023-02-11T04:51:18.468Z,19.05
2023-02-11T04:52:18.462Z,19.05
2023-02-11T04:53:18.455Z,19.08
2023-02-11T04:54:18.458Z,19.06
2023-02-11T04:55:18.427Z,19.08
2023-02-11T04:56:18.429Z,19.10
2023-02-11T04:57:18.399Z,19.10
2023-02-11T04:58:18.400Z,19.11
2023-02-11T04:59:18.385Z,19.11
2023-02-11T05:00:18.388Z,19.14
2023-02-11T05:01:18.382Z,19.14
2023-02-11T05:02:18.356Z,19.14
2023-02-11T05:03:18.348Z,19.15
2023-02-11T05:04:18.421Z,19.17
2023-02-11T05:05:18.325Z,19.17
2023-02-11T05:06:18.316Z,19.18
2023-02-11T05:07:18.297Z,19.20
2023-02-11T05:08:18.295Z,19.20
2023-02-11T05:09:18.301Z,19.20
2023-02-11T05:10:18.273Z,19.20
2023-02-11T05:11:18.250Z,19.23
2023-02-11T05:12:18.251Z,19.21
2023-02-11T05:13:18.239Z,19.23
2023-02-11T05:14:18.235Z,19.23
2023-02-11T05:15:18.211Z,19.24
2023-02-11T05:16:18.277Z,19.23
2023-02-11T05:17:18.202Z,19.24
2023-02-11T05:18:18.186Z,19.24
2023-02-11T05:19:18.195Z,19.24
2023-02-11T05:20:18.177Z,19.25
2023-02-11T05:21:18.147Z,19.24
2023-02-11T05:22:18.147Z,19.24
2023-02-11T05:23:18.131Z,19.25
2023-02-11T05:24:18.130Z,19.24
2023-02-11T05:25:18.107Z,19.25
2023-02-11T05:26:18.106Z,19.25
2023-02-11T05:27:18.088Z,19.25
2023-02-11T05:28:18.105Z,19.28
2023-02-11T05:29:18.073Z,19.24
2023-02-11T05:30:18.067Z,19.25
2023-02-11T05:31:18.074Z,19.25
2023-02-11T05:32:18.040Z,19.25
2023-02-11T05:33:18.033Z,19.24
2023-02-11T05:34:18.031Z,19.25
2023-02-11T05:35:18.002Z,19.25
2023-02-11T05:36:18.008Z,19.25
2023-02-11T05:37:18.015Z,19.25
2023-02-11T05:38:18.676Z,19.24
2023-02-11T05:39:17.962Z,19.25
2023-02-11T05:40:17.965Z,19.24
2023-02-11T05:41:17.950Z,19.23
2023-02-11T05:42:17.985Z,19.25
2023-02-11T05:43:17.919Z,19.23
2023-02-11T05:44:17.915Z,19.23
2023-02-11T05:45:17.899Z,19.23
2023-02-11T05:46:17.982Z,19.24
2023-02-11T05:47:17.886Z,19.23
2023-02-11T05:48:17.878Z,19.24
2023-02-11T05:49:17.855Z,19.23
2023-02-11T05:50:17.848Z,19.23
2023-02-11T05:51:17.865Z,19.23
2023-02-11T05:52:17.827Z,19.23
2023-02-11T05:53:17.814Z,19.21
2023-02-11T05:54:17.808Z,19.23
2023-02-11T05:55:17.828Z,19.21
2023-02-11T05:56:17.826Z,19.20
2023-02-11T05:57:17.777Z,19.21
2023-02-11T05:58:17.787Z,19.20
2023-02-11T05:59:17.756Z,19.21
2023-02-11T06:00:17.742Z,19.21
2023-02-11T06:01:17.730Z,19.20
2023-02-11T06:02:17.738Z,19.21
2023-02-11T06:03:17.736Z,19.21
2023-02-11T06:04:17.699Z,19.21
2023-02-11T06:05:17.687Z,19.21
2023-02-11T06:06:17.693Z,19.21
2023-02-11T06:07:17.670Z,19.21
2023-02-11T06:08:17.657Z,19.21
2023-02-11T06:09:17.654Z,19.20
2023-02-11T06:10:17.638Z,19.20
2023-02-11T06:11:17.629Z,19.21
2023-02-11T06:12:17.624Z,19.21
2023-02-11T06:13:17.617Z,19.21
2023-02-11T06:14:17.599Z,19.20
2023-02-11T06:15:17.584Z,19.21
2023-02-11T06:16:17.625Z,19.23
2023-02-11T06:17:17.568Z,19.20
2023-02-11T06:18:17.562Z,19.20
2023-02-11T06:19:17.547Z,19.21
2023-02-11T06:20:17.532Z,19.20
2023-02-11T06:21:17.533Z,19.21
2023-02-11T06:22:17.518Z,19.23
2023-02-11T06:23:17.512Z,19.21
2023-02-11T06:24:28.549Z,19.21
2023-02-11T06:25:17.482Z,19.23
2023-02-11T06:26:17.484Z,19.23
2023-02-11T06:27:17.452Z,19.21
2023-02-11T06:28:17.462Z,19.23
2023-02-11T06:29:17.430Z,19.21
2023-02-11T06:30:17.425Z,19.21
2023-02-11T06:31:17.599Z,19.23
2023-02-11T06:32:39.498Z,19.23
2023-02-11T06:33:17.404Z,19.21
2023-02-11T06:34:17.402Z,19.24
2023-02-11T06:35:17.368Z,19.24
2023-02-11T06:36:17.362Z,19.23
2023-02-11T06:37:17.345Z,19.24
2023-02-11T06:38:17.371Z,19.24
2023-02-11T06:39:17.325Z,19.23
2023-02-11T06:40:17.320Z,19.24
2023-02-11T06:41:17.317Z,19.24
2023-02-11T06:42:17.298Z,19.25
2023-02-11T06:43:17.295Z,19.25
2023-02-11T06:44:17.283Z,19.25
2023-02-11T06:45:17.269Z,19.25
2023-02-11T06:46:17.309Z,19.28
2023-02-11T06:47:17.266Z,19.25
2023-02-11T06:48:17.248Z,19.28
2023-02-11T06:49:17.218Z,19.28
2023-02-11T06:50:17.213Z,19.28
2023-02-11T06:51:17.196Z,19.29
2023-02-11T06:52:17.191Z,19.28
2023-02-11T06:53:17.176Z,19.28
2023-02-11T06:54:17.181Z,19.28
2023-02-11T06:55:17.163Z,19.29
2023-02-11T06:56:17.156Z,19.29
2023-02-11T06:57:17.138Z,19.28
2023-02-11T06:58:17.136Z,19.28
2023-02-11T06:59:17.112Z,19.29
2023-02-11T07:00:17.119Z,19.29
2023-02-11T07:01:17.095Z,19.28
2023-02-11T07:02:19.660Z,19.29
2023-02-11T07:03:17.227Z,19.28
2023-02-11T07:04:17.063Z,19.28
2023-02-11T07:05:17.068Z,19.29
2023-02-11T07:06:17.052Z,19.28
2023-02-11T07:07:17.038Z,19.28
2023-02-11T07:08:17.031Z,19.29
2023-02-11T07:09:17.012Z,19.29
2023-02-11T07:10:17.015Z,19.31
2023-02-11T07:11:17.004Z,19.31
2023-02-11T07:12:16.982Z,19.29
2023-02-11T07:13:16.964Z,19.29
2023-02-11T07:14:16.988Z,19.28
2023-02-11T07:15:16.945Z,19.31
2023-02-11T07:16:17.050Z,19.31
2023-02-11T07:17:16.928Z,19.29
2023-02-11T07:18:16.918Z,19.29
2023-02-11T07:19:16.906Z,19.29
2023-02-11T07:20:16.910Z,19.29
2023-02-11T07:21:16.884Z,19.29
2023-02-11T07:22:16.882Z,19.29
2023-02-11T07:23:16.865Z,19.31
2023-02-11T07:24:16.852Z,19.29
2023-02-11T07:25:16.848Z,19.29
2023-02-11T07:26:16.842Z,19.29
2023-02-11T07:27:16.829Z,19.28
2023-02-11T07:28:16.866Z,19.29
2023-02-11T07:29:16.790Z,19.31
2023-02-11T07:30:16.794Z,19.28
2023-02-11T07:31:16.889Z,19.31
2023-02-11T07:32:16.843Z,19.31
2023-02-11T07:33:16.753Z,19.29
2023-02-11T07:34:16.743Z,19.29
2023-02-11T07:35:16.729Z,19.29
2023-02-11T07:36:16.752Z,19.29
2023-02-11T07:37:16.722Z,19.29
2023-02-11T07:38:16.702Z,19.31
2023-02-11T07:39:16.703Z,19.31
2023-02-11T07:40:16.695Z,19.29
2023-02-11T07:41:16.673Z,19.31
2023-02-11T07:42:16.656Z,19.29
2023-02-11T07:43:16.649Z,19.31
2023-02-11T07:44:16.633Z,19.29
2023-02-11T07:45:16.627Z,19.31
2023-02-11T07:46:16.687Z,19.29
2023-02-11T07:47:16.616Z,19.31
2023-02-11T07:48:16.617Z,19.31
2023-02-11T07:49:16.591Z,19.31
2023-02-11T07:50:16.577Z,19.29
2023-02-11T07:51:16.566Z,19.31
2023-02-11T07:52:16.562Z,19.29
2023-02-11T07:53:16.552Z,19.32
2023-02-11T07:54:16.536Z,19.29
2023-02-11T07:55:16.521Z,19.31
2023-02-11T07:56:16.532Z,19.31
2023-02-11T07:57:16.507Z,19.31
2023-02-11T07:58:16.495Z,19.31
2023-02-11T07:59:16.486Z,19.32
2023-02-11T08:00:17.490Z,19.31
2023-02-11T08:01:16.603Z,19.31
2023-02-11T08:02:16.525Z,19.32
2023-02-11T08:03:16.443Z,19.29
2023-02-11T08:04:16.445Z,19.31
2023-02-11T08:05:16.423Z,19.32
2023-02-11T08:06:16.594Z,19.31
2023-02-11T08:07:16.395Z,19.32
2023-02-11T08:08:16.387Z,19.31
2023-02-11T08:09:16.374Z,19.32
2023-02-11T08:10:16.376Z,19.31
2023-02-11T08:11:16.360Z,19.31
2023-02-11T08:12:16.347Z,19.32
2023-02-11T08:13:16.330Z,19.32
2023-02-11T08:14:16.333Z,19.32
2023-02-11T08:15:16.313Z,19.32
2023-02-11T08:16:16.419Z,19.32
2023-02-11T08:17:16.309Z,19.32
2023-02-11T08:18:16.281Z,19.32
2023-02-11T08:19:16.270Z,19.32
2023-02-11T08:20:16.266Z,19.33
2023-02-11T08:21:16.255Z,19.32
2023-02-11T08:22:16.242Z,19.33
2023-02-11T08:23:16.237Z,19.33
2023-02-11T08:24:16.233Z,19.32
2023-02-11T08:25:16.219Z,19.33
2023-02-11T08:26:16.197Z,19.32
2023-02-11T08:27:16.186Z,19.32
2023-02-11T08:28:16.236Z,19.33
2023-02-11T08:29:16.176Z,19.35
2023-02-11T08:30:16.153Z,19.33
2023-02-11T08:31:16.277Z,19.33
2023-02-11T08:32:16.212Z,19.32
2023-02-11T08:33:16.123Z,19.33
2023-02-11T08:34:16.131Z,19.35
2023-02-11T08:35:16.100Z,19.33
2023-02-11T08:36:16.086Z,19.33
2023-02-11T08:37:16.076Z,19.33
2023-02-11T08:38:16.084Z,19.35
2023-02-11T08:39:19.767Z,19.35
2023-02-11T08:40:16.061Z,19.35
2023-02-11T08:41:16.117Z,19.35
2023-02-11T08:42:16.028Z,19.35
2023-02-11T08:43:16.013Z,19.33
2023-02-11T08:44:16.002Z,19.32
2023-02-11T08:45:16.002Z,19.33
2023-02-11T08:46:16.079Z,19.33
2023-02-11T08:47:15.978Z,19.35
2023-02-11T08:48:15.960Z,19.33
2023-02-11T08:49:15.970Z,19.32
2023-02-11T08:50:15.959Z,19.33
2023-02-11T08:51:16.014Z,19.35
2023-02-11T08:52:15.930Z,19.33
2023-02-11T08:53:15.916Z,19.33
2023-02-11T08:54:15.916Z,19.35
2023-02-11T08:55:15.899Z,19.35
2023-02-11T08:56:15.886Z,19.33
2023-02-11T08:57:15.877Z,19.33
2023-02-11T08:58:18.155Z,19.32
2023-02-11T08:59:15.864Z,19.33
2023-02-11T09:00:15.833Z,19.32
2023-02-11T09:01:15.889Z,19.33
2023-02-11T09:02:15.832Z,19.33
2023-02-11T09:03:15.810Z,19.33
2023-02-11T09:04:15.797Z,19.33
2023-02-11T09:05:15.800Z,19.33
2023-02-11T09:06:15.774Z,19.33
2023-02-11T09:07:15.761Z,19.35
2023-02-11T09:08:15.762Z,19.32
2023-02-11T09:09:15.740Z,19.33
2023-02-11T09:10:15.756Z,19.33
2023-02-11T09:11:15.731Z,19.33
2023-02-11T09:12:15.710Z,19.33
2023-02-11T09:13:15.699Z,19.33
2023-02-11T09:14:15.693Z,19.33
2023-02-11T09:15:15.680Z,19.32
2023-02-11T09:16:15.680Z,19.33
2023-02-11T09:17:15.662Z,19.32
2023-02-11T09:18:15.651Z,19.33
2023-02-11T09:19:15.643Z,19.33
2023-02-11T09:20:15.623Z,19.32
2023-02-11T09:21:15.628Z,19.32
2023-02-11T09:22:15.600Z,19.33
2023-02-11T09:23:18.306Z,19.32
2023-02-11T09:24:15.582Z,19.32
2023-02-11T09:25:15.577Z,19.33
2023-02-11T09:26:15.562Z,19.31
2023-02-11T09:27:15.558Z,19.32
2023-02-11T09:28:15.582Z,19.33
2023-02-11T09:29:15.531Z,19.32
2023-02-11T09:30:15.518Z,19.31
2023-02-11T09:31:15.628Z,19.32
2023-02-11T09:32:15.641Z,19.29
2023-02-11T09:33:15.486Z,19.31
2023-02-11T09:34:15.486Z,19.32
2023-02-11T09:35:15.470Z,19.31
2023-02-11T09:36:15.486Z,19.31
2023-02-11T09:37:15.458Z,19.31
2023-02-11T09:38:15.428Z,19.31
2023-02-11T09:39:15.425Z,19.29
2023-02-11T09:40:15.417Z,19.31
2023-02-11T09:41:15.417Z,19.31
2023-02-11T09:42:15.393Z,19.31
2023-02-11T09:43:15.399Z,19.31
2023-02-11T09:44:15.370Z,19.29
2023-02-11T09:45:15.358Z,19.31
2023-02-11T09:46:15.401Z,19.31
2023-02-11T09:47:15.345Z,19.31
2023-02-11T09:48:15.325Z,19.32
2023-02-11T09:49:15.318Z,19.31
2023-02-11T09:50:15.319Z,19.31
2023-02-11T09:51:15.294Z,19.32
2023-02-11T09:52:15.292Z,19.31
2023-02-11T09:53:15.291Z,19.31
2023-02-11T09:54:15.277Z,19.32
2023-02-11T09:55:15.270Z,19.32
2023-02-11T09:56:16.030Z,19.31
2023-02-11T09:57:27.888Z,19.31
2023-02-11T09:58:15.234Z,19.32
2023-02-11T09:59:15.227Z,19.31
2023-02-11T10:00:15.202Z,19.31
2023-02-11T10:01:15.215Z,19.31
2023-02-11T10:02:15.180Z,19.32
2023-02-11T10:03:15.177Z,19.32
2023-02-11T10:04:15.267Z,19.29
2023-02-11T10:05:15.179Z,19.33
2023-02-11T10:06:15.163Z,19.33
2023-02-11T10:07:15.132Z,19.31
2023-02-11T10:08:16.916Z,19.32
2023-02-11T10:09:15.105Z,19.33
2023-02-11T10:10:15.100Z,19.32
2023-02-11T10:11:29.625Z,19.32
2023-02-11T10:12:15.087Z,19.32
2023-02-11T10:13:15.104Z,19.33
2023-02-11T10:14:15.048Z,19.32
2023-02-11T10:15:15.053Z,19.32
2023-02-11T10:16:15.158Z,19.33
2023-02-11T10:17:15.030Z,19.32
2023-02-11T10:18:15.029Z,19.32
2023-02-11T10:19:15.032Z,19.32
2023-02-11T10:20:16.926Z,19.33
2023-02-11T10:21:14.993Z,19.33
2023-02-11T10:22:14.978Z,19.32
2023-02-11T10:23:14.967Z,19.31
2023-02-11T10:24:14.952Z,19.32
2023-02-11T10:25:14.938Z,19.32
2023-02-11T10:26:14.933Z,19.33
2023-02-11T10:27:14.925Z,19.33
2023-02-11T10:28:14.947Z,19.32
2023-02-11T10:29:14.904Z,19.32
2023-02-11T10:30:14.877Z,19.32
2023-02-11T10:31:15.018Z,19.33
2023-02-11T10:32:14.900Z,19.33
2023-02-11T10:33:14.851Z,19.31
2023-02-11T10:34:14.846Z,19.32
2023-02-11T10:35:14.825Z,19.33
2023-02-11T10:36:14.822Z,19.33
2023-02-11T10:37:14.819Z,19.33
2023-02-11T10:38:14.809Z,19.32
2023-02-11T10:39:14.790Z,19.32
2023-02-11T10:40:14.769Z,19.31
2023-02-11T10:41:14.767Z,19.33
2023-02-11T10:42:14.758Z,19.31
2023-02-11T10:43:14.752Z,19.31
2023-02-11T10:44:14.732Z,19.33
2023-02-11T10:45:14.734Z,19.32
2023-02-11T10:46:14.739Z,19.32
2023-02-11T10:47:14.729Z,19.32
2023-02-11T10:48:16.437Z,19.33
2023-02-11T10:49:14.682Z,19.33
2023-02-11T10:50:14.680Z,19.33
2023-02-11T10:51:14.814Z,19.33
2023-02-11T10:52:14.650Z,19.32
2023-02-11T10:53:14.636Z,19.33
2023-02-11T10:54:14.630Z,19.32
2023-02-11T10:55:14.612Z,19.32
2023-02-11T10:56:14.606Z,19.33
2023-02-11T10:57:14.598Z,19.32
2023-02-11T10:58:14.580Z,19.32
2023-02-11T10:59:14.580Z,19.33
2023-02-11T11:00:14.566Z,19.33
2023-02-11T11:01:24.332Z,19.32
2023-02-11T11:02:14.567Z,19.33
2023-02-11T11:03:14.645Z,19.33
2023-02-11T11:04:14.556Z,19.33
2023-02-11T11:05:14.516Z,19.32
2023-02-11T11:06:14.502Z,19.32
2023-02-11T11:07:14.512Z,19.33
2023-02-11T11:08:14.473Z,19.32
2023-02-11T11:09:14.465Z,19.33
2023-02-11T11:10:14.452Z,19.33
2023-02-11T11:11:14.453Z,19.33
2023-02-11T11:12:14.444Z,19.33
2023-02-11T11:13:14.433Z,19.33
2023-02-11T11:14:14.411Z,19.33
2023-02-11T11:15:14.404Z,19.32
2023-02-11T11:16:14.515Z,19.32
2023-02-11T11:17:14.392Z,19.32
2023-02-11T11:18:21.282Z,19.32
2023-02-11T11:19:14.366Z,19.32
2023-02-11T11:20:21.468Z,19.31
2023-02-11T11:21:14.346Z,19.32
2023-02-11T11:22:14.327Z,19.33
2023-02-11T11:23:14.341Z,19.33
2023-02-11T11:24:14.318Z,19.32
2023-02-11T11:25:14.300Z,19.33
2023-02-11T11:26:14.296Z,19.32
2023-02-11T11:27:14.282Z,19.32
2023-02-11T11:28:14.338Z,19.32
2023-02-11T11:29:14.260Z,19.33
2023-02-11T11:30:14.268Z,19.31
2023-02-11T11:31:14.356Z,19.31
2023-02-11T11:32:14.241Z,19.32
2023-02-11T11:33:14.223Z,19.33
2023-02-11T11:34:14.203Z,19.32
2023-02-11T11:35:14.217Z,19.32
2023-02-11T11:36:14.183Z,19.33
2023-02-11T11:37:14.176Z,19.33
2023-02-11T11:38:14.164Z,19.33
2023-02-11T11:39:14.152Z,19.32
2023-02-11T11:40:14.157Z,19.32
2023-02-11T11:41:14.137Z,19.33
2023-02-11T11:42:14.117Z,19.31
2023-02-11T11:43:14.122Z,19.31
2023-02-11T11:44:14.096Z,19.33
2023-02-11T11:45:14.090Z,19.35
2023-02-11T11:46:14.112Z,19.32
2023-02-11T11:47:14.118Z,19.32
2023-02-11T11:48:14.073Z,19.32
2023-02-11T11:49:14.052Z,19.32
2023-02-11T11:50:14.032Z,19.33
2023-02-11T11:51:14.037Z,19.32
2023-02-11T11:52:14.032Z,19.32
2023-02-11T11:53:14.025Z,19.32
2023-02-11T11:54:13.994Z,19.33
2023-02-11T11:55:13.986Z,19.33
2023-02-11T11:56:13.981Z,19.33
2023-02-11T11:57:13.968Z,19.32
2023-02-11T11:58:13.962Z,19.32
2023-02-11T11:59:13.951Z,19.35
2023-02-11T12:00:13.957Z,19.33
2023-02-11T12:01:13.936Z,19.33
2023-02-11T12:02:13.996Z,19.32
2023-02-11T12:03:14.024Z,19.33
2023-02-11T12:04:13.895Z,19.33
2023-02-11T12:05:13.894Z,19.32
2023-02-11T12:06:13.886Z,19.32
2023-02-11T12:07:13.861Z,19.33
2023-02-11T12:08:13.883Z,19.33
2023-02-11T12:09:13.844Z,19.32
2023-02-11T12:10:13.836Z,19.32
2023-02-11T12:11:13.824Z,19.32
2023-02-11T12:12:13.822Z,19.33
2023-02-11T12:13:13.806Z,19.32
2023-02-11T12:14:13.783Z,19.32
2023-02-11T12:15:13.777Z,19.32
2023-02-11T12:16:14.106Z,19.32
2023-02-11T12:17:13.765Z,19.35
2023-02-11T12:18:13.769Z,19.32
2023-02-11T12:19:13.744Z,19.33
2023-02-11T12:20:13.786Z,19.35
2023-02-11T12:21:13.722Z,19.35
2023-02-11T12:22:13.718Z,19.32
2023-02-11T12:23:13.694Z,19.33
2023-02-11T12:24:15.699Z,19.32
2023-02-11T12:25:13.674Z,19.32
2023-02-11T12:26:13.670Z,19.33
2023-02-11T12:27:13.654Z,19.33
2023-02-11T12:28:13.668Z,19.32
2023-02-11T12:29:13.637Z,19.32
2023-02-11T12:30:13.694Z,19.33
2023-02-11T12:31:13.764Z,19.33
2023-02-11T12:32:13.686Z,19.33
2023-02-11T12:33:13.587Z,19.33
2023-02-11T12:34:13.579Z,19.33
2023-02-11T12:35:13.575Z,19.33
2023-02-11T12:36:13.573Z,19.32
2023-02-11T12:37:13.512Z,19.32
2023-02-11T12:38:13.484Z,19.32
2023-02-11T12:39:13.479Z,19.35
2023-02-11T12:40:13.575Z,19.32
2023-02-11T12:41:13.516Z,19.33
2023-02-11T12:42:13.451Z,19.33
2023-02-11T12:43:13.449Z,19.33
2023-02-11T12:44:13.480Z,19.33
2023-02-11T12:45:13.463Z,19.33
2023-02-11T12:46:13.530Z,19.32
2023-02-11T12:47:13.467Z,19.33
2023-02-11T12:48:13.428Z,19.32
2023-02-11T12:49:13.392Z,19.33
2023-02-11T12:50:13.439Z,19.33
2023-02-11T12:51:13.341Z,19.33
2023-02-11T12:52:13.415Z,19.35
2023-02-11T12:53:13.388Z,19.33